createdAt,value
2022-08-26T00:00:03.572Z,28.73
2022-08-26T00:02:41.033Z,21.05
2022-08-26T00:05:10.199Z,26.08
2022-08-26T00:07:41.309Z,19.48
2022-08-26T00:10:12.548Z,22.25
2022-08-26T00:12:42.340Z,24.52
2022-08-26T00:15:12.704Z,22.55
2022-08-26T00:17:43.898Z,26.35
2022-08-26T00:20:14.079Z,26.38
2022-08-26T00:22:42.496Z,24.48
2022-08-26T00:25:12.418Z,19.48
2022-08-26T00:27:44.082Z,24.70
2022-08-26T00:30:22.894Z,28.70
2022-08-26T00:32:53.104Z,21.15
2022-08-26T00:35:22.139Z,25.27
2022-08-26T00:37:51.652Z,23.50
2022-08-26T00:40:22.498Z,27.05
2022-08-26T00:43:01.637Z,25.20
2022-08-26T00:45:31.125Z,23.13
2022-08-26T00:48:01.871Z,22.42
2022-08-26T00:50:35.219Z,22.98
2022-08-26T00:53:05.000Z,28.85
2022-08-26T00:55:38.228Z,28.63
2022-08-26T00:58:08.601Z,21.40
2022-08-26T01:00:37.158Z,28.05
2022-08-26T01:03:07.585Z,22.60
2022-08-26T01:05:41.565Z,23.42
2022-08-26T01:08:10.037Z,25.20
2022-08-26T01:10:38.457Z,26.30
2022-08-26T01:13:11.232Z,25.95
2022-08-26T01:15:43.450Z,23.70
2022-08-26T01:18:13.343Z,23.98
2022-08-26T01:20:45.754Z,25.88
2022-08-26T01:23:15.676Z,24.45
2022-08-26T01:25:45.533Z,21.85
2022-08-26T01:28:17.268Z,24.60
2022-08-26T01:30:50.940Z,25.05
2022-08-26T01:33:20.821Z,23.80
2022-08-26T01:35:50.429Z,30.17
2022-08-26T01:38:23.649Z,28.02
2022-08-26T01:40:53.636Z,25.23
2022-08-26T01:43:24.843Z,25.77
2022-08-26T01:45:56.944Z,25.45
2022-08-26T01:48:27.377Z,25.65
2022-08-26T01:50:57.393Z,27.77
2022-08-26T01:53:28.140Z,25.85
2022-08-26T01:55:58.772Z,23.88
2022-08-26T01:58:30.108Z,22.75
2022-08-26T02:01:00.016Z,26.73
2022-08-26T02:03:29.358Z,26.00
2022-08-26T02:05:59.254Z,22.50
2022-08-26T02:08:32.223Z,26.75
2022-08-26T02:11:01.238Z,23.90
2022-08-26T02:13:31.328Z,26.55
2022-08-26T02:16:00.553Z,35.83
2022-08-26T02:18:29.966Z,29.05
2022-08-26T02:20:58.785Z,23.90
2022-08-26T02:23:28.440Z,26.63
2022-08-26T02:26:04.298Z,30.25
2022-08-26T02:28:34.897Z,27.80
2022-08-26T02:31:03.415Z,26.05
2022-08-26T02:33:33.329Z,24.35
2022-08-26T02:36:04.256Z,25.60
2022-08-26T02:38:32.898Z,23.95
2022-08-26T02:41:03.462Z,23.75
2022-08-26T02:43:32.959Z,29.48
2022-08-26T02:46:02.704Z,23.55
2022-08-26T02:48:34.099Z,23.63
2022-08-26T02:51:03.843Z,20.52
2022-08-26T02:53:35.563Z,25.75
2022-08-26T02:56:05.888Z,23.25
2022-08-26T02:58:34.275Z,27.73
2022-08-26T03:01:04.739Z,30.17
2022-08-26T03:03:33.845Z,31.38
2022-08-26T03:06:02.341Z,26.27
2022-08-26T03:08:30.713Z,33.30
2022-08-26T03:10:59.244Z,25.60
2022-08-26T03:13:31.382Z,34.53
2022-08-26T03:16:02.701Z,32.00
2022-08-26T03:18:31.143Z,24.60
2022-08-26T03:20:59.586Z,24.40
2022-08-26T03:23:28.309Z,27.20
2022-08-26T03:25:57.074Z,24.00
2022-08-26T03:28:27.153Z,29.60
2022-08-26T03:30:57.050Z,25.40
2022-08-26T03:33:26.024Z,30.58
2022-08-26T03:35:55.687Z,24.42
2022-08-26T03:38:26.200Z,27.40
2022-08-26T03:40:56.281Z,28.02
2022-08-26T03:43:26.823Z,26.02
2022-08-26T03:45:56.621Z,29.40
2022-08-26T03:48:25.757Z,27.15
2022-08-26T03:50:54.132Z,20.88
2022-08-26T03:53:23.845Z,31.45
2022-08-26T03:55:52.264Z,27.70
2022-08-26T03:58:20.911Z,26.63
2022-08-26T04:00:55.417Z,24.02
2022-08-26T04:03:39.547Z,28.85
2022-08-26T04:06:08.245Z,22.95
2022-08-26T04:08:38.032Z,30.00
2022-08-26T04:11:07.554Z,25.00
2022-08-26T04:13:36.102Z,26.98
2022-08-26T04:16:04.722Z,26.67
2022-08-26T04:18:37.306Z,26.63
2022-08-26T04:21:09.531Z,23.50
2022-08-26T04:23:47.266Z,29.17
2022-08-26T04:26:16.636Z,25.23
2022-08-26T04:28:45.025Z,25.70
2022-08-26T04:31:14.629Z,24.52
2022-08-26T04:33:45.405Z,29.63
2022-08-26T04:36:14.916Z,22.20
2022-08-26T04:38:44.549Z,26.73
2022-08-26T04:41:15.018Z,27.60
2022-08-26T04:43:45.587Z,24.98
2022-08-26T04:46:14.683Z,33.67
2022-08-26T04:48:45.848Z,23.55
2022-08-26T04:51:14.264Z,28.00
2022-08-26T04:53:42.685Z,24.08
2022-08-26T04:56:11.139Z,24.02
2022-08-26T04:58:39.555Z,28.95
2022-08-26T05:01:08.364Z,23.83
2022-08-26T05:03:37.364Z,31.45
2022-08-26T05:06:12.319Z,22.52
2022-08-26T05:08:41.065Z,23.92
2022-08-26T05:11:09.991Z,25.10
2022-08-26T05:13:39.121Z,23.48
2022-08-26T05:16:08.675Z,25.98
2022-08-26T05:18:40.916Z,22.80
2022-08-26T05:21:18.780Z,24.30
2022-08-26T05:23:47.331Z,21.63
2022-08-26T05:26:17.967Z,24.17
2022-08-26T05:28:51.581Z,23.10
2022-08-26T05:31:24.450Z,20.88
2022-08-26T05:33:52.948Z,20.33
2022-08-26T05:36:23.803Z,20.60
2022-08-26T05:38:55.456Z,23.02
2022-08-26T05:41:27.650Z,26.77
2022-08-26T05:44:03.302Z,26.30
2022-08-26T05:46:31.790Z,26.15
2022-08-26T05:49:00.644Z,23.88
2022-08-26T05:51:30.961Z,18.17
2022-08-26T05:54:02.642Z,20.63
2022-08-26T05:56:32.500Z,21.75
2022-08-26T05:59:02.647Z,18.30
2022-08-26T06:01:35.691Z,16.17
2022-08-26T06:04:04.695Z,19.27
2022-08-26T06:06:35.877Z,21.80
2022-08-26T06:09:07.111Z,16.90
2022-08-26T06:11:39.277Z,16.92
2022-08-26T06:14:08.194Z,17.38
2022-08-26T06:16:38.263Z,19.48
2022-08-26T06:19:10.682Z,15.00
2022-08-26T06:21:42.947Z,16.63
2022-08-26T06:24:30.675Z,20.73
2022-08-26T06:27:01.494Z,17.05
2022-08-26T06:29:31.096Z,17.95
2022-08-26T06:31:59.869Z,16.83
2022-08-26T06:34:30.565Z,20.98
2022-08-26T06:37:02.561Z,13.13
2022-08-26T06:39:31.638Z,18.67
2022-08-26T06:42:00.219Z,16.27
2022-08-26T06:44:29.181Z,19.60
2022-08-26T06:46:57.992Z,17.27
2022-08-26T06:49:27.819Z,19.58
2022-08-26T06:51:58.349Z,20.35
2022-08-26T06:54:30.305Z,18.75
2022-08-26T06:56:59.121Z,18.38
2022-08-26T06:59:27.595Z,25.58
2022-08-26T07:01:56.213Z,28.50
2022-08-26T07:04:25.040Z,24.73
2022-08-26T07:06:56.901Z,22.90
2022-08-26T07:09:27.093Z,21.55
2022-08-26T07:11:57.335Z,23.02
2022-08-26T07:14:26.238Z,17.98
2022-08-26T07:16:55.207Z,25.77
2022-08-26T07:19:30.862Z,21.20
2022-08-26T07:22:01.818Z,25.67
2022-08-26T07:24:31.099Z,28.92
2022-08-26T07:27:02.984Z,21.40
2022-08-26T07:29:33.986Z,24.75
2022-08-26T07:32:02.463Z,22.67
2022-08-26T07:34:32.115Z,23.83
2022-08-26T07:37:01.584Z,23.70
2022-08-26T07:39:31.540Z,22.48
2022-08-26T07:42:01.358Z,20.67
2022-08-26T07:44:32.413Z,18.52
2022-08-26T07:47:01.479Z,28.83
2022-08-26T07:49:31.230Z,24.33
2022-08-26T07:52:00.101Z,25.15
2022-08-26T07:54:28.582Z,21.20
2022-08-26T07:56:57.229Z,27.65
2022-08-26T07:59:26.395Z,22.67
2022-08-26T08:01:59.165Z,23.98
2022-08-26T08:04:28.239Z,29.35
2022-08-26T08:06:56.825Z,30.05
2022-08-26T08:09:27.508Z,23.33
2022-08-26T08:11:57.537Z,22.75
2022-08-26T08:14:25.949Z,25.60
2022-08-26T08:16:56.050Z,23.58
2022-08-26T08:19:29.939Z,26.13
2022-08-26T08:22:17.096Z,30.15
2022-08-26T08:24:49.783Z,24.00
2022-08-26T08:27:23.269Z,26.05
2022-08-26T08:29:54.329Z,25.13
2022-08-26T08:32:25.305Z,24.17
2022-08-26T08:34:56.838Z,26.05
2022-08-26T08:37:25.546Z,30.63
2022-08-26T08:39:53.987Z,23.10
2022-08-26T08:42:38.817Z,22.00
2022-08-26T08:45:09.860Z,27.23
2022-08-26T08:47:42.117Z,29.40
2022-08-26T08:50:17.118Z,23.73
2022-08-26T08:52:47.305Z,29.90
2022-08-26T08:55:18.254Z,26.92
2022-08-26T08:57:53.750Z,22.67
2022-08-26T09:00:30.343Z,21.83
2022-08-26T09:03:03.597Z,28.70
2022-08-26T09:05:36.877Z,22.85
2022-08-26T09:08:08.430Z,20.17
2022-08-26T09:10:41.380Z,17.90
2022-08-26T09:13:16.825Z,15.27
2022-08-26T09:15:53.268Z,15.10
2022-08-26T09:18:34.584Z,17.30
2022-08-26T09:21:04.343Z,17.52
2022-08-26T09:23:33.197Z,17.85
2022-08-26T09:26:05.145Z,18.08
2022-08-26T09:28:33.541Z,15.30
2022-08-26T09:31:09.230Z,14.73
2022-08-26T09:33:41.194Z,13.50
2022-08-26T09:36:18.610Z,13.85
2022-08-26T09:38:47.142Z,14.55
2022-08-26T09:41:23.492Z,17.55
2022-08-26T09:44:06.990Z,16.17
2022-08-26T09:46:35.838Z,19.35
2022-08-26T09:49:19.270Z,18.38
2022-08-26T09:51:50.035Z,17.75
2022-08-26T09:54:30.258Z,14.52
2022-08-26T09:57:11.805Z,19.35
2022-08-26T09:59:40.202Z,17.17
2022-08-26T10:02:18.023Z,11.38
2022-08-26T10:04:52.225Z,13.20
2022-08-26T10:07:36.256Z,11.25
2022-08-26T10:10:09.250Z,11.40
2022-08-26T10:12:40.417Z,14.98
2022-08-26T10:15:11.837Z,11.63
2022-08-26T10:17:44.653Z,11.27
2022-08-26T10:20:23.599Z,10.18
2022-08-26T10:22:57.244Z,15.82
2022-08-26T10:25:28.413Z,10.13
2022-08-26T10:28:05.202Z,9.75
2022-08-26T10:30:35.374Z,10.63
2022-08-26T10:33:05.352Z,13.50
2022-08-26T10:35:35.134Z,10.02
2022-08-26T10:38:09.510Z,9.45
2022-08-26T10:40:44.673Z,10.25
2022-08-26T10:43:16.546Z,14.63
2022-08-26T10:45:46.147Z,11.10
2022-08-26T10:48:16.593Z,11.20
2022-08-26T10:50:48.547Z,9.32
2022-08-26T10:53:24.982Z,9.80
2022-08-26T10:55:58.252Z,10.98
2022-08-26T10:58:44.738Z,12.95
2022-08-26T11:01:40.757Z,10.13
2022-08-26T11:04:14.655Z,14.20
2022-08-26T11:06:45.942Z,12.02
2022-08-26T11:09:35.985Z,16.73
2022-08-26T11:12:10.046Z,15.95
2022-08-26T11:14:58.794Z,14.68
2022-08-26T11:17:45.533Z,20.17
2022-08-26T11:20:32.622Z,17.83
2022-08-26T11:23:16.595Z,21.95
2022-08-26T11:26:00.203Z,19.60
2022-08-26T11:28:35.448Z,20.25
2022-08-26T11:31:04.682Z,16.38
2022-08-26T11:33:58.051Z,14.90
2022-08-26T11:36:38.667Z,14.85
2022-08-26T11:39:17.328Z,15.20
2022-08-26T11:41:45.799Z,22.35
2022-08-26T11:44:19.356Z,20.90
2022-08-26T11:46:56.251Z,16.40
2022-08-26T11:49:25.558Z,15.23
2022-08-26T11:51:55.725Z,20.40
2022-08-26T11:54:35.369Z,20.30
2022-08-26T11:57:07.934Z,16.27
2022-08-26T11:59:43.446Z,17.38
2022-08-26T12:02:14.632Z,16.92
2022-08-26T12:04:43.801Z,12.77
2022-08-26T12:07:12.877Z,16.27
2022-08-26T12:09:52.618Z,17.20
2022-08-26T12:12:24.350Z,20.77
2022-08-26T12:15:09.178Z,20.52
2022-08-26T12:17:38.720Z,13.32
2022-08-26T12:20:07.614Z,13.63
2022-08-26T12:22:38.794Z,15.13
2022-08-26T12:25:12.927Z,10.27
2022-08-26T12:27:42.535Z,14.13
2022-08-26T12:30:14.031Z,19.65
2022-08-26T12:32:57.166Z,9.18
2022-08-26T12:35:28.779Z,15.52
2022-08-26T12:37:58.278Z,8.27
2022-08-26T12:40:27.462Z,15.35
2022-08-26T12:42:56.487Z,10.30
2022-08-26T12:45:30.431Z,9.52
2022-08-26T12:48:00.343Z,9.70
2022-08-26T12:50:29.826Z,9.43
2022-08-26T12:53:00.834Z,11.52
2022-08-26T12:55:36.410Z,14.60
2022-08-26T12:58:12.713Z,8.23
2022-08-26T13:00:46.334Z,14.80
2022-08-26T13:03:38.372Z,11.93
2022-08-26T13:06:15.513Z,12.07
2022-08-26T13:08:45.139Z,11.07
2022-08-26T13:11:15.524Z,11.68
2022-08-26T13:13:43.950Z,11.77
2022-08-26T13:16:14.628Z,13.48
2022-08-26T13:18:42.996Z,11.40
2022-08-26T13:21:18.171Z,10.90
2022-08-26T13:23:46.649Z,11.57
2022-08-26T13:26:15.355Z,10.63
2022-08-26T13:28:43.756Z,11.32
2022-08-26T13:31:12.534Z,14.02
2022-08-26T13:33:43.957Z,11.93
2022-08-26T13:36:13.234Z,8.73
2022-08-26T13:38:42.392Z,9.55
2022-08-26T13:41:17.528Z,9.57
2022-08-26T13:43:57.383Z,9.60
2022-08-26T13:46:28.436Z,10.80
2022-08-26T13:48:58.629Z,8.88
2022-08-26T13:51:27.647Z,10.57
2022-08-26T13:53:56.398Z,9.35
2022-08-26T13:56:27.407Z,15.27
2022-08-26T13:58:56.328Z,8.18
2022-08-26T14:01:25.236Z,10.82
2022-08-26T14:03:53.705Z,14.05
2022-08-26T14:06:23.800Z,7.80
2022-08-26T14:08:52.282Z,10.20
2022-08-26T14:11:22.402Z,9.90
2022-08-26T14:13:51.574Z,10.93
2022-08-26T14:16:24.623Z,8.57
2022-08-26T14:18:53.353Z,12.98
2022-08-26T14:21:23.222Z,8.48
2022-08-26T14:23:51.577Z,18.35
2022-08-26T14:26:28.436Z,18.05
2022-08-26T14:28:58.695Z,22.90
2022-08-26T14:31:29.075Z,21.65
2022-08-26T14:33:58.580Z,18.58
2022-08-26T14:36:32.580Z,14.60
2022-08-26T14:39:02.724Z,23.02
2022-08-26T14:41:31.866Z,17.70
2022-08-26T14:44:01.773Z,23.63
2022-08-26T14:46:32.013Z,18.17
2022-08-26T14:49:01.779Z,15.85
2022-08-26T14:51:32.227Z,14.50
2022-08-26T14:54:16.171Z,15.35
2022-08-26T14:56:46.313Z,20.27
2022-08-26T14:59:15.160Z,18.40
2022-08-26T15:01:43.636Z,13.65
2022-08-26T15:04:12.165Z,17.55
2022-08-26T15:06:42.069Z,12.35
2022-08-26T15:09:10.471Z,13.70
2022-08-26T15:11:38.979Z,13.95
2022-08-26T15:14:07.607Z,14.82
2022-08-26T15:16:43.414Z,12.77
2022-08-26T15:19:11.788Z,17.20
2022-08-26T15:21:41.634Z,16.35
2022-08-26T15:24:10.068Z,13.60
2022-08-26T15:26:38.478Z,13.98
2022-08-26T15:29:07.092Z,17.42
2022-08-26T15:31:36.638Z,15.30
2022-08-26T15:34:06.333Z,15.05
2022-08-26T15:36:34.805Z,20.10
2022-08-26T15:39:05.811Z,14.52
2022-08-26T15:41:37.531Z,16.85
2022-08-26T15:44:07.245Z,14.73
2022-08-26T15:46:38.557Z,15.45
2022-08-26T15:49:07.191Z,14.48
2022-08-26T15:51:45.663Z,13.65
2022-08-26T15:54:17.087Z,16.02
2022-08-26T15:56:47.321Z,12.88
2022-08-26T15:59:16.810Z,16.58
2022-08-26T16:01:45.643Z,17.58
2022-08-26T16:04:14.193Z,17.20
2022-08-26T16:06:43.518Z,19.55
2022-08-26T16:09:12.261Z,21.17
2022-08-26T16:11:42.000Z,16.98
2022-08-26T16:14:10.599Z,18.25
2022-08-26T16:16:40.315Z,16.38
2022-08-26T16:19:08.934Z,22.17
2022-08-26T16:21:38.420Z,17.48
2022-08-26T16:24:07.396Z,20.60
2022-08-26T16:26:36.552Z,20.77
2022-08-26T16:29:07.626Z,18.25
2022-08-26T16:31:37.265Z,19.38
2022-08-26T16:34:05.708Z,20.67
2022-08-26T16:36:34.344Z,17.98
2022-08-26T16:39:02.764Z,15.95
2022-08-26T16:41:32.082Z,17.42
2022-08-26T16:44:00.646Z,17.15
2022-08-26T16:46:30.692Z,14.55
2022-08-26T16:48:59.706Z,21.73
2022-08-26T16:51:29.615Z,51.67
2022-08-26T16:53:58.861Z,51.60
2022-08-26T16:56:34.063Z,18.15
2022-08-26T16:59:03.142Z,24.05
2022-08-26T17:01:33.000Z,25.15
2022-08-26T17:04:01.449Z,43.10
2022-08-26T17:06:31.896Z,15.75
2022-08-26T17:09:00.245Z,15.35
2022-08-26T17:11:28.734Z,21.38
2022-08-26T17:13:57.418Z,23.58
2022-08-26T17:16:27.050Z,31.90
2022-08-26T17:18:57.946Z,23.65
2022-08-26T17:21:27.073Z,20.45
2022-08-26T17:23:55.930Z,27.20
2022-08-26T17:26:24.376Z,29.98
2022-08-26T17:28:52.801Z,28.55
2022-08-26T17:31:21.811Z,24.38
2022-08-26T17:33:53.251Z,28.73
2022-08-26T17:36:27.939Z,33.00
2022-08-26T17:38:57.265Z,26.92
2022-08-26T17:41:26.035Z,132.30
2022-08-26T17:43:54.400Z,46.22
2022-08-26T17:46:22.873Z,46.95
2022-08-26T17:48:51.266Z,30.88
2022-08-26T17:51:20.321Z,31.10
2022-08-26T17:53:50.478Z,29.92
2022-08-26T17:56:20.219Z,26.80
2022-08-26T17:58:51.201Z,28.17
2022-08-26T18:01:20.536Z,31.27
2022-08-26T18:03:49.065Z,25.85
2022-08-26T18:06:17.511Z,39.28
2022-08-26T18:08:46.113Z,24.15
2022-08-26T18:11:16.721Z,27.05
2022-08-26T18:13:47.016Z,24.42
2022-08-26T18:16:16.770Z,33.28
2022-08-26T18:18:45.482Z,22.67
2022-08-26T18:21:15.568Z,32.88
2022-08-26T18:23:44.304Z,53.70
2022-08-26T18:26:18.265Z,26.30
2022-08-26T18:28:46.679Z,27.13
2022-08-26T18:31:15.817Z,26.50
2022-08-26T18:33:44.515Z,28.75
2022-08-26T18:36:19.782Z,245.70
2022-08-26T18:38:48.299Z,578.83
2022-08-26T18:41:21.525Z,549.55
2022-08-26T18:43:50.763Z,140.10
2022-08-26T18:46:20.046Z,102.22
2022-08-26T18:48:49.086Z,73.43
2022-08-26T18:51:20.203Z,80.18
2022-08-26T18:53:48.639Z,94.03
2022-08-26T18:56:18.638Z,50.70
2022-08-26T18:58:48.623Z,72.47
2022-08-26T19:01:17.608Z,45.55
2022-08-26T19:03:46.501Z,94.07
2022-08-26T19:06:15.626Z,29.73
2022-08-26T19:08:44.818Z,485.00
2022-08-26T19:11:13.859Z,589.63
2022-08-26T19:13:42.503Z,554.45
2022-08-26T19:16:42.284Z,319.33
2022-08-26T19:19:12.005Z,33.15
2022-08-26T19:21:40.719Z,30.85
2022-08-26T19:24:13.174Z,31.67
2022-08-26T19:26:43.303Z,28.25
2022-08-26T19:29:15.388Z,27.80
2022-08-26T19:31:47.869Z,29.85
2022-08-26T19:34:20.206Z,25.85
2022-08-26T19:36:50.670Z,26.98
2022-08-26T19:39:19.288Z,28.27
2022-08-26T19:41:47.690Z,26.80
2022-08-26T19:44:37.888Z,120.13
2022-08-26T19:47:08.894Z,51.90
2022-08-26T19:49:37.480Z,32.63
2022-08-26T19:52:06.697Z,18.70
2022-08-26T19:54:36.113Z,22.55
2022-08-26T19:57:04.701Z,21.08
2022-08-26T19:59:33.363Z,25.33
2022-08-26T20:02:02.266Z,22.15
2022-08-26T20:04:32.453Z,17.55
2022-08-26T20:07:01.083Z,21.55
2022-08-26T20:09:33.101Z,17.25
2022-08-26T20:12:02.647Z,25.35
2022-08-26T20:14:31.299Z,17.42
2022-08-26T20:16:59.791Z,19.20
2022-08-26T20:19:46.276Z,24.77
2022-08-26T20:22:16.671Z,29.98
2022-08-26T20:24:45.488Z,28.85
2022-08-26T20:27:14.118Z,26.15
2022-08-26T20:29:42.736Z,17.17
2022-08-26T20:32:12.088Z,16.98
2022-08-26T20:34:40.995Z,28.13
2022-08-26T20:37:09.668Z,31.02
2022-08-26T20:39:39.473Z,31.23
2022-08-26T20:42:20.328Z,16.80
2022-08-26T20:44:54.674Z,15.52
2022-08-26T20:47:23.717Z,22.13
2022-08-26T20:49:52.369Z,24.52
2022-08-26T20:52:21.185Z,44.15
2022-08-26T20:54:50.934Z,22.00
2022-08-26T20:57:19.317Z,26.92
2022-08-26T20:59:47.678Z,17.10
2022-08-26T21:02:16.076Z,20.17
2022-08-26T21:04:44.972Z,22.63
2022-08-26T21:07:13.481Z,18.27
2022-08-26T21:09:41.877Z,11.90
2022-08-26T21:12:12.009Z,14.40
2022-08-26T21:14:40.495Z,18.20
2022-08-26T21:17:08.870Z,14.38
2022-08-26T21:19:37.480Z,29.80
2022-08-26T21:22:06.010Z,16.38
2022-08-26T21:24:34.608Z,15.20
2022-08-26T21:27:12.184Z,15.30
2022-08-26T21:29:42.133Z,11.20
2022-08-26T21:32:12.408Z,21.65
2022-08-26T21:34:44.149Z,17.77
2022-08-26T21:37:15.355Z,13.18
2022-08-26T21:39:45.293Z,64.95
2022-08-26T21:42:13.772Z,22.27
2022-08-26T21:44:45.073Z,10.82
2022-08-26T21:47:21.267Z,22.02
2022-08-26T21:49:49.677Z,19.63
2022-08-26T21:52:18.495Z,10.88
2022-08-26T21:54:49.265Z,67.18
2022-08-26T21:57:18.342Z,25.02
2022-08-26T21:59:50.079Z,29.25
2022-08-26T22:02:18.512Z,11.40
2022-08-26T22:04:48.941Z,12.15
2022-08-26T22:07:19.207Z,26.50
2022-08-26T22:09:47.886Z,20.17
2022-08-26T22:12:18.074Z,10.82
2022-08-26T22:14:48.286Z,16.65
2022-08-26T22:17:17.094Z,12.80
2022-08-26T22:19:46.355Z,12.98
2022-08-26T22:22:15.261Z,12.55
2022-08-26T22:24:46.852Z,10.75
2022-08-26T22:27:15.581Z,12.88
2022-08-26T22:29:46.492Z,11.45
2022-08-26T22:32:16.356Z,11.52
2022-08-26T22:34:44.817Z,9.52
2022-08-26T22:37:13.725Z,29.20
2022-08-26T22:39:44.922Z,18.85
2022-08-26T22:42:13.683Z,11.88
2022-08-26T22:44:43.760Z,12.85
2022-08-26T22:47:14.772Z,12.00
2022-08-26T22:49:44.860Z,12.88
2022-08-26T22:52:13.770Z,11.52
2022-08-26T22:54:42.166Z,10.65
2022-08-26T22:57:10.714Z,10.70
2022-08-26T22:59:39.231Z,12.63
2022-08-26T23:02:11.964Z,12.57
2022-08-26T23:04:41.361Z,15.80
2022-08-26T23:07:11.222Z,17.98
2022-08-26T23:09:39.643Z,16.98
2022-08-26T23:12:08.419Z,13.38
2022-08-26T23:14:37.337Z,15.23
2022-08-26T23:17:05.813Z,10.65
2022-08-26T23:19:34.216Z,12.18
2022-08-26T23:22:02.818Z,15.25
2022-08-26T23:24:34.056Z,10.98
2022-08-26T23:27:02.483Z,22.13
2022-08-26T23:29:30.922Z,72.28
2022-08-26T23:32:00.343Z,26.73
2022-08-26T23:34:46.482Z,11.05
2022-08-26T23:37:16.545Z,12.88
2022-08-26T23:39:46.252Z,11.77
2022-08-26T23:42:14.977Z,12.48
2022-08-26T23:44:43.605Z,32.08
2022-08-26T23:47:12.937Z,33.15
2022-08-26T23:49:41.493Z,16.50
2022-08-26T23:52:27.846Z,11.23
2022-08-26T23:55:00.158Z,8.48
2022-08-26T23:57:28.583Z,10.80
2022-08-26T23:59:57.860Z,10.95
